createdAt,value
2023-02-05T00:00:13.799Z,6.07
2023-02-05T00:04:30.986Z,5.77
2023-02-05T00:08:50.451Z,5.57
2023-02-05T00:13:15.450Z,5.85
2023-02-05T00:17:39.277Z,4.23
2023-02-05T00:22:03.494Z,3.70
2023-02-05T00:26:29.001Z,4.65
2023-02-05T00:30:53.759Z,4.32
2023-02-05T00:35:21.896Z,5.53
2023-02-05T00:39:49.316Z,6.30
2023-02-05T00:44:14.808Z,6.85
2023-02-05T00:48:39.083Z,5.50
2023-02-05T00:53:03.326Z,6.25
2023-02-05T00:57:27.541Z,3.80
2023-02-05T01:01:53.033Z,4.03
2023-02-05T01:06:18.389Z,4.25
2023-02-05T01:10:46.335Z,3.22
2023-02-05T01:15:13.253Z,4.97
2023-02-05T01:19:39.359Z,3.30
2023-02-05T01:24:03.883Z,7.13
2023-02-05T01:28:29.024Z,3.88
2023-02-05T01:32:53.379Z,4.80
2023-02-05T01:37:19.012Z,5.60
2023-02-05T01:41:45.612Z,4.97
2023-02-05T01:46:21.639Z,2.00
2023-02-05T01:50:49.697Z,5.60
2023-02-05T01:55:15.873Z,4.55
2023-02-05T01:59:43.251Z,4.18
2023-02-05T02:04:08.061Z,5.10
2023-02-05T02:08:33.720Z,7.07
2023-02-05T02:12:59.315Z,6.63
2023-02-05T02:17:24.158Z,4.03
2023-02-05T02:22:24.215Z,9.52
2023-02-05T02:26:59.971Z,5.28
2023-02-05T02:31:31.839Z,4.13
2023-02-05T02:36:02.008Z,7.95
2023-02-05T02:40:33.888Z,5.45
2023-02-05T02:45:01.548Z,4.38
2023-02-05T02:49:42.390Z,6.67
2023-02-05T02:54:21.270Z,4.93
2023-02-05T02:59:06.255Z,6.30
2023-02-05T03:03:52.363Z,6.00
2023-02-05T03:08:34.685Z,6.53
2023-02-05T03:13:13.715Z,8.20
2023-02-05T03:17:58.558Z,6.33
2023-02-05T03:22:38.089Z,6.40
2023-02-05T03:27:18.995Z,6.45
2023-02-05T03:32:05.255Z,7.35
2023-02-05T03:37:01.476Z,7.33
2023-02-05T03:41:58.716Z,4.50
2023-02-05T03:46:59.342Z,6.88
2023-02-05T03:51:50.677Z,7.93
2023-02-05T03:56:42.283Z,8.45
2023-02-05T04:01:28.023Z,4.55
2023-02-05T04:06:13.814Z,3.90
2023-02-05T04:10:58.289Z,7.25
2023-02-05T04:15:44.423Z,4.30
2023-02-05T04:20:31.391Z,5.82
2023-02-05T04:25:18.337Z,5.63
2023-02-05T04:30:02.553Z,4.75
2023-02-05T04:34:50.301Z,7.22
2023-02-05T04:39:34.669Z,6.37
2023-02-05T04:44:20.263Z,3.88
2023-02-05T04:49:04.342Z,8.40
2023-02-05T04:53:48.805Z,3.27
2023-02-05T04:58:32.759Z,4.20
2023-02-05T05:03:18.173Z,6.30
2023-02-05T05:08:02.238Z,7.55
2023-02-05T05:12:46.394Z,3.47
2023-02-05T05:17:30.953Z,8.13
2023-02-05T05:22:16.493Z,7.13
2023-02-05T05:27:01.134Z,5.83
2023-02-05T05:31:45.416Z,7.60
2023-02-05T05:36:30.069Z,7.60
2023-02-05T05:41:37.527Z,6.43
2023-02-05T05:46:23.744Z,6.70
2023-02-05T05:51:07.804Z,7.75
2023-02-05T05:55:52.015Z,6.40
2023-02-05T06:00:38.546Z,5.63
2023-02-05T06:05:22.593Z,6.50
2023-02-05T06:10:07.671Z,6.32
2023-02-05T06:14:47.309Z,6.13
2023-02-05T06:19:32.934Z,8.10
2023-02-05T06:24:17.008Z,7.60
2023-02-05T06:29:03.344Z,7.60
2023-02-05T06:33:47.509Z,4.57
2023-02-05T06:38:32.944Z,6.43
2023-02-05T06:43:17.246Z,7.22
2023-02-05T06:48:02.962Z,5.90
2023-02-05T06:52:47.311Z,8.15
2023-02-05T06:57:33.445Z,7.25
2023-02-05T07:02:17.665Z,8.13
2023-02-05T07:07:01.815Z,7.80
2023-02-05T07:11:45.973Z,9.15
2023-02-05T07:16:31.893Z,8.03
2023-02-05T07:21:17.690Z,6.28
2023-02-05T07:26:07.731Z,7.28
2023-02-05T07:30:52.053Z,8.00
2023-02-05T07:35:39.468Z,4.23
2023-02-05T07:40:23.456Z,8.38
2023-02-05T07:45:08.132Z,8.23
2023-02-05T07:49:52.275Z,7.13
2023-02-05T07:54:37.811Z,6.22
2023-02-05T07:59:21.882Z,8.98
2023-02-05T08:04:06.191Z,6.10
2023-02-05T08:08:50.424Z,6.78
2023-02-05T08:13:35.837Z,7.20
2023-02-05T08:18:20.173Z,5.80
2023-02-05T08:23:05.230Z,5.27
2023-02-05T08:27:49.524Z,5.65
2023-02-05T08:32:35.398Z,5.60
2023-02-05T08:37:19.528Z,6.63
2023-02-05T08:42:04.004Z,6.22
2023-02-05T08:46:50.414Z,5.18
2023-02-05T08:51:36.707Z,8.47
2023-02-05T08:56:20.839Z,8.35
2023-02-05T09:01:06.836Z,6.95
2023-02-05T09:05:51.025Z,10.90
2023-02-05T09:10:37.249Z,6.87
2023-02-05T09:15:21.679Z,25.45
2023-02-05T09:20:06.699Z,8.15
2023-02-05T09:24:51.385Z,9.63
2023-02-05T09:29:37.561Z,8.57
2023-02-05T09:34:21.964Z,11.48
2023-02-05T09:39:16.038Z,10.77
2023-02-05T09:44:17.472Z,10.25
2023-02-05T09:49:09.235Z,7.38
2023-02-05T09:53:57.485Z,8.45
2023-02-05T09:58:44.681Z,10.57
2023-02-05T10:03:35.481Z,10.90
2023-02-05T10:08:28.714Z,6.82
2023-02-05T10:13:32.233Z,7.50
2023-02-05T10:18:27.723Z,7.88
2023-02-05T10:23:16.941Z,10.13
2023-02-05T10:28:12.074Z,9.57
2023-02-05T10:32:58.872Z,10.68
2023-02-05T10:37:47.958Z,6.18
2023-02-05T10:42:37.430Z,12.27
2023-02-05T10:47:33.125Z,10.17
2023-02-05T10:52:18.243Z,8.63
2023-02-05T10:57:03.095Z,7.85
2023-02-05T11:01:48.166Z,10.03
2023-02-05T11:06:38.202Z,8.55
2023-02-05T11:11:28.041Z,7.85
2023-02-05T11:16:12.641Z,8.33
2023-02-05T11:20:58.720Z,6.35
2023-02-05T11:25:52.815Z,7.53
2023-02-05T11:30:52.100Z,7.68
2023-02-05T11:35:38.345Z,8.90
2023-02-05T11:40:24.859Z,7.07
2023-02-05T11:45:19.809Z,7.30
2023-02-05T11:50:06.122Z,7.70
2023-02-05T11:54:50.531Z,9.23
2023-02-05T11:59:35.953Z,6.78
2023-02-05T12:04:22.781Z,7.17
2023-02-05T12:09:07.566Z,9.48
2023-02-05T12:14:04.385Z,8.52
2023-02-05T12:18:58.059Z,5.60
2023-02-05T12:24:08.397Z,5.57
2023-02-05T12:29:01.286Z,4.93
2023-02-05T12:34:01.211Z,7.85
2023-02-05T12:38:56.476Z,7.70
2023-02-05T12:43:46.239Z,5.50
2023-02-05T12:48:59.257Z,7.72
2023-02-05T12:54:01.820Z,6.73
2023-02-05T12:58:51.570Z,7.30
2023-02-05T13:03:40.652Z,6.60
2023-02-05T13:08:43.141Z,5.88
2023-02-05T13:13:40.911Z,7.10
2023-02-05T13:18:31.673Z,5.40
2023-02-05T13:23:51.196Z,4.45
2023-02-05T13:28:47.685Z,6.07
2023-02-05T13:33:36.639Z,8.50
2023-02-05T13:38:46.021Z,6.93
2023-02-05T13:44:05.346Z,7.47
2023-02-05T13:49:19.086Z,7.20
2023-02-05T13:54:49.409Z,7.32
2023-02-05T13:59:51.775Z,7.53
2023-02-05T14:05:02.904Z,7.17
2023-02-05T14:09:57.077Z,7.07
2023-02-05T14:14:42.156Z,9.90
2023-02-05T14:25:05.834Z,8.48
2023-02-05T14:29:51.479Z,8.10
2023-02-05T14:34:59.725Z,5.13
2023-02-05T14:39:49.240Z,7.10
2023-02-05T14:44:44.349Z,7.75
2023-02-05T14:49:37.931Z,7.53
2023-02-05T14:54:35.856Z,7.60
2023-02-05T14:59:34.863Z,5.78
2023-02-05T15:04:49.516Z,7.53
2023-02-05T15:09:41.523Z,7.07
2023-02-05T15:14:53.244Z,6.47
2023-02-05T15:19:47.618Z,6.35
2023-02-05T15:24:38.201Z,8.83
2023-02-05T15:29:42.409Z,9.02
2023-02-05T15:34:37.480Z,5.53
2023-02-05T15:39:30.789Z,8.35
2023-02-05T15:44:28.199Z,9.60
2023-02-05T15:49:14.415Z,7.78
2023-02-05T15:54:06.166Z,9.60
2023-02-05T15:58:52.826Z,9.57
2023-02-05T16:03:41.458Z,9.95
2023-02-05T16:08:28.213Z,10.20
2023-02-05T16:13:20.633Z,10.33
2023-02-05T16:18:12.652Z,7.70
2023-02-05T16:23:00.755Z,10.05
2023-02-05T16:27:49.158Z,9.23
2023-02-05T16:32:42.535Z,10.37
2023-02-05T16:37:30.628Z,11.23
2023-02-05T16:42:34.302Z,11.90
2023-02-05T16:47:29.003Z,11.90
2023-02-05T16:52:31.237Z,12.77
2023-02-05T16:57:24.977Z,11.80
2023-02-05T17:02:29.997Z,9.70
2023-02-05T17:07:23.612Z,9.75
2023-02-05T17:12:38.617Z,10.70
2023-02-05T17:17:23.613Z,10.20
2023-02-05T17:22:23.921Z,8.60
2023-02-05T17:27:14.971Z,9.27
2023-02-05T17:32:00.744Z,8.73
2023-02-05T17:36:46.922Z,8.20
2023-02-05T17:41:55.386Z,7.10
2023-02-05T17:46:39.794Z,7.72
2023-02-05T17:51:27.857Z,7.93
2023-02-05T17:56:13.216Z,8.50
2023-02-05T18:00:57.383Z,8.73
2023-02-05T18:05:41.746Z,7.78
2023-02-05T18:10:32.777Z,8.00
2023-02-05T18:15:24.255Z,10.52
2023-02-05T18:20:10.187Z,10.38
2023-02-05T18:24:54.520Z,11.67
2023-02-05T18:29:43.980Z,8.75
2023-02-05T18:34:28.516Z,9.20
2023-02-05T18:39:12.721Z,11.60
2023-02-05T18:43:58.836Z,11.13
2023-02-05T18:48:50.265Z,11.65
2023-02-05T18:53:34.734Z,10.82
2023-02-05T18:58:19.004Z,12.30
2023-02-05T19:03:06.058Z,12.20
2023-02-05T19:07:53.551Z,15.80
2023-02-05T19:12:40.952Z,14.07
2023-02-05T19:17:27.467Z,13.73
2023-02-05T19:22:12.269Z,16.65
2023-02-05T19:27:00.128Z,13.07
2023-02-05T19:31:45.797Z,12.27
2023-02-05T19:36:30.433Z,14.05
2023-02-05T19:41:16.178Z,14.00
2023-02-05T19:46:04.696Z,12.87
2023-02-05T19:50:52.255Z,13.95
2023-02-05T19:55:36.984Z,12.85
2023-02-05T20:00:22.325Z,14.27
2023-02-05T20:05:11.903Z,14.40
2023-02-05T20:09:56.288Z,15.98
2023-02-05T20:14:40.440Z,16.40
2023-02-05T20:19:25.077Z,13.95
2023-02-05T20:24:18.386Z,17.95
2023-02-05T20:29:21.463Z,15.68
2023-02-05T20:34:11.463Z,15.40
2023-02-05T20:38:57.823Z,15.23
2023-02-05T20:43:43.633Z,15.13
2023-02-05T20:48:29.682Z,12.67
2023-02-05T20:53:13.806Z,15.20
2023-02-05T20:58:00.979Z,14.90
2023-02-05T21:02:47.108Z,17.73
2023-02-05T21:07:34.953Z,13.27
2023-02-05T21:12:19.106Z,14.38
2023-02-05T21:17:03.356Z,13.43
2023-02-05T21:21:50.170Z,18.30
2023-02-05T21:26:38.924Z,16.40
2023-02-05T21:31:34.018Z,15.68
2023-02-05T21:36:21.487Z,14.73
2023-02-05T21:41:13.674Z,18.50
2023-02-05T21:46:02.567Z,14.43
2023-02-05T21:50:46.690Z,16.03
2023-02-05T21:55:34.746Z,18.88
2023-02-05T22:00:23.311Z,15.68
2023-02-05T22:05:11.788Z,16.73
2023-02-05T22:09:59.206Z,16.37
2023-02-05T22:14:43.639Z,16.05
2023-02-05T22:19:33.152Z,16.35
2023-02-05T22:24:19.134Z,14.00
2023-02-05T22:29:06.367Z,15.18
2023-02-05T22:33:53.147Z,15.57
2023-02-05T22:38:40.438Z,15.33
2023-02-05T22:43:25.105Z,15.65
2023-02-05T22:48:10.446Z,16.98
2023-02-05T22:52:54.739Z,14.35
2023-02-05T22:57:40.201Z,17.33
2023-02-05T23:02:26.424Z,21.55
2023-02-05T23:07:10.738Z,19.63
2023-02-05T23:11:57.646Z,20.97
2023-02-05T23:16:45.294Z,16.63
2023-02-05T23:21:31.874Z,18.42
2023-02-05T23:26:19.156Z,18.87
2023-02-05T23:31:03.889Z,16.65
2023-02-05T23:35:51.100Z,17.63
2023-02-05T23:40:35.439Z,18.02
2023-02-05T23:45:19.761Z,18.00
2023-02-05T23:50:04.886Z,18.13
2023-02-05T23:54:50.601Z,19.10
2023-02-05T23:59:34.681Z,17.40
